Time;durP1;ratioP1;P1;durP2;ratioP2;P2;SDS_P1;SDS_P2;PMS_P1;PMS_P2;Temp;Humidity;BMP_temperature;BMP_pressure;BME280_temperature;BME280_humidity;BME280_pressure;Samples;Min_cycle;Max_cycle;Signal;HPM_P1;HPM_P2
2023/09/13 00:01:00;;;;;;;7.17;1.77;;;;;;;17.65;100.00;101418.97;2079600;28;20219;-63
2023/09/13 00:02:00;;;;;;;6.77;1.93;;;;;;;17.49;100.00;101385.59;2080779;28;20185;-63
2023/09/13 00:03:00;;;;;;;2.40;1.40;;;;;;;17.60;100.00;101409.13;2081151;28;20181;-63
2023/09/13 00:04:02;;;;;;;2.23;1.23;;;;;;;17.63;100.00;101402.63;2082277;28;20181;-63
2023/09/13 00:05:03;;;;;;;2.63;1.70;;;;;;;17.64;100.00;101412.59;2088680;28;20278;-63
2023/09/13 00:06:03;;;;;;;2.57;1.47;;;;;;;17.58;100.00;101396.81;2082628;28;20467;-63
2023/09/13 00:07:03;;;;;;;5.00;1.40;;;;;;;17.65;100.00;101404.97;2081503;28;20210;-63
2023/09/13 00:08:04;;;;;;;4.77;1.53;;;;;;;17.39;100.00;101356.75;2081344;28;20229;-63
2023/09/13 00:09:06;;;;;;;2.83;1.83;;;;;;;17.64;100.00;101404.16;2081374;28;20204;-63
2023/09/13 00:10:07;;;;;;;4.03;1.53;;;;;;;17.61;100.00;101402.28;2081014;28;20438;-63
2023/09/13 00:11:08;;;;;;;2.53;1.67;;;;;;;17.29;100.00;101344.69;2081413;28;20423;-63
2023/09/13 00:12:09;;;;;;;3.50;1.70;;;;;;;16.96;100.00;101298.81;2081733;28;20427;-63
2023/09/13 00:13:09;;;;;;;2.70;1.23;;;;;;;17.67;100.00;101395.63;2074092;28;20240;-63
2023/09/13 00:14:09;;;;;;;4.67;1.73;;;;;;;17.68;100.00;101408.38;2078419;28;20220;-63
2023/09/13 00:15:10;;;;;;;2.60;1.37;;;;;;;17.69;100.00;101406.38;2080480;28;20227;-63
2023/09/13 00:16:11;;;;;;;2.83;1.80;;;;;;;17.69;100.00;101417.59;2080981;28;20186;-63
2023/09/13 00:17:11;;;;;;;4.73;1.63;;;;;;;17.70;100.00;101412.78;2081338;28;20192;-63
2023/09/13 00:18:15;;;;;;;8.90;1.80;;;;;;;17.68;100.00;101405.56;2081129;28;20420;-63
2023/09/13 00:19:16;;;;;;;3.30;1.70;;;;;;;17.70;100.00;101412.78;2081582;28;20184;-63
2023/09/13 00:20:17;;;;;;;3.80;1.67;;;;;;;17.65;100.00;101405.72;2080498;28;20505;-63
2023/09/13 00:21:20;;;;;;;4.07;1.97;;;;;;;17.70;100.00;101415.56;2082228;28;20192;-63
2023/09/13 00:22:20;;;;;;;6.47;2.83;;;;;;;17.70;100.00;101421.19;2081198;28;20272;-63
2023/09/13 00:23:21;;;;;;;3.43;1.90;;;;;;;17.67;100.00;101412.44;2081433;28;21132;-63
2023/09/13 00:24:21;;;;;;;3.93;1.93;;;;;;;17.52;100.00;101398.66;2080862;28;20208;-63
2023/09/13 00:25:22;;;;;;;4.03;1.60;;;;;;;17.66;100.00;101417.72;2081287;28;20212;-63
2023/09/13 00:26:22;;;;;;;4.83;1.90;;;;;;;17.28;100.00;101365.56;2081064;28;20561;-63
2023/09/13 00:27:22;;;;;;;2.80;1.50;;;;;;;17.61;100.00;101418.34;2081328;28;20256;-63
2023/09/13 00:28:23;;;;;;;2.70;1.80;;;;;;;16.98;100.00;101329.16;2081070;28;20179;-63
2023/09/13 00:29:23;;;;;;;2.67;1.40;;;;;;;17.53;100.00;101421.41;2081691;28;20184;-63
2023/09/13 00:30:24;;;;;;;4.07;2.17;;;;;;;17.51;100.00;101419.53;2081156;28;20295;-63
2023/09/13 00:31:24;;;;;;;2.93;1.67;;;;;;;17.48;100.00;101424.03;2081387;28;20213;-63
2023/09/13 00:32:25;;;;;;;4.90;1.70;;;;;;;17.46;100.00;101412.53;2075336;28;20202;-63
2023/09/13 00:33:25;;;;;;;2.77;1.60;;;;;;;17.42;100.00;101415.44;2077515;28;20566;-63
2023/09/13 00:34:25;;;;;;;2.43;1.40;;;;;;;17.04;100.00;101361.69;2081155;28;20257;-63
2023/09/13 00:35:26;;;;;;;4.23;1.60;;;;;;;17.32;100.00;101424.25;2081158;28;20788;-63
2023/09/13 00:36:27;;;;;;;3.97;1.40;;;;;;;17.31;100.00;101414.28;2081043;28;20234;-63
2023/09/13 00:37:27;;;;;;;2.10;1.40;;;;;;;17.30;100.00;101404.28;2081974;28;20181;-63
2023/09/13 00:38:28;;;;;;;5.10;1.63;;;;;;;17.19;100.00;101415.13;2080905;28;20235;-63
2023/09/13 00:39:28;;;;;;;3.00;1.50;;;;;;;17.17;100.00;101409.22;2081495;28;20215;-63
2023/09/13 00:40:29;;;;;;;3.57;2.00;;;;;;;17.02;100.00;101400.59;2081065;28;20203;-63
2023/09/13 00:41:31;;;;;;;2.67;1.70;;;;;;;16.42;100.00;101312.50;2076594;28;20197;-63
2023/09/13 00:42:32;;;;;;;3.07;1.67;;;;;;;17.03;100.00;101410.56;2076483;28;20197;-63
2023/09/13 00:43:33;;;;;;;2.67;1.60;;;;;;;16.40;100.00;101326.13;2080562;28;20446;-63
2023/09/13 00:44:33;;;;;;;3.67;1.67;;;;;;;16.95;100.00;101414.09;2080924;28;20685;-63
2023/09/13 00:45:34;;;;;;;3.37;1.90;;;;;;;16.87;100.00;101398.78;2081666;28;20181;-63
2023/09/13 00:46:35;;;;;;;3.87;1.60;;;;;;;16.94;100.00;101415.28;2080594;28;20324;-63
2023/09/13 00:47:36;;;;;;;10.20;2.00;;;;;;;16.93;100.00;101417.34;2080655;28;20207;-63
2023/09/13 00:48:36;;;;;;;8.90;2.27;;;;;;;16.94;100.00;101413.28;2078981;28;20455;-63
2023/09/13 00:49:37;;;;;;;3.37;1.63;;;;;;;16.94;100.00;101406.91;2080967;28;21014;-63
2023/09/13 00:50:37;;;;;;;3.40;1.83;;;;;;;16.91;100.00;101417.00;2080925;28;20712;-63
2023/09/13 00:51:38;;;;;;;4.97;2.00;;;;;;;16.84;100.00;101405.28;2080077;28;20304;-63
2023/09/13 00:52:41;;;;;;;4.40;1.67;;;;;;;16.86;100.00;101414.78;2081024;28;20178;-63
2023/09/13 00:53:42;;;;;;;6.50;2.23;;;;;;;16.28;100.00;101312.97;2080967;28;20428;-63
2023/09/13 00:54:43;;;;;;;4.00;1.80;;;;;;;16.92;100.00;101412.19;2073701;28;20519;-63
2023/09/13 00:55:44;;;;;;;5.50;2.13;;;;;;;16.06;100.00;101277.84;2079651;28;20458;-63
2023/09/13 00:56:45;;;;;;;8.20;3.10;;;;;;;16.95;100.00;101409.25;2080902;28;20482;-63
2023/09/13 00:57:48;;;;;;;3.60;2.00;;;;;;;16.98;100.00;101412.38;2080050;28;20441;-63
2023/09/13 00:58:51;;;;;;;5.50;2.00;;;;;;;16.98;100.00;101424.34;2080968;28;20650;-63
2023/09/13 00:59:51;;;;;;;4.83;1.90;;;;;;;16.98;100.00;101415.94;2081014;28;20475;-63
2023/09/13 01:00:53;;;;;;;6.13;2.03;;;;;;;16.54;100.00;101347.25;2081135;28;20961;-63
2023/09/13 01:01:53;;;;;;;4.90;2.13;;;;;;;16.98;100.00;101416.75;2080904;28;20192;-63
2023/09/13 01:02:54;;;;;;;4.17;1.90;;;;;;;16.98;100.00;101413.94;2081118;28;20434;-63
2023/09/13 01:03:57;;;;;;;6.63;2.43;;;;;;;17.02;100.00;101411.00;2073319;28;20671;-63
2023/09/13 01:04:57;;;;;;;6.60;2.23;;;;;;;17.02;100.00;101419.41;2079321;28;20221;-63
2023/09/13 01:05:59;;;;;;;4.47;2.00;;;;;;;17.02;100.00;101416.59;2080722;28;20478;-63
2023/09/13 01:07:00;;;;;;;6.50;1.90;;;;;;;17.03;100.00;101412.56;2081132;28;20190;-63
2023/09/13 01:08:01;;;;;;;7.30;2.30;;;;;;;17.09;100.00;101421.94;2080854;28;20457;-63
2023/09/13 01:09:04;;;;;;;5.03;2.00;;;;;;;17.12;100.00;101418.22;2080618;28;20424;-63
2023/09/13 01:10:05;;;;;;;7.00;1.97;;;;;;;17.15;100.00;101417.28;2080786;28;20188;-63
2023/09/13 01:11:06;;;;;;;4.97;1.90;;;;;;;16.60;100.00;101337.03;2080838;28;20451;-63
2023/09/13 01:12:07;;;;;;;3.83;1.83;;;;;;;16.84;100.00;101372.47;2081132;28;20452;-63
2023/09/13 01:13:07;;;;;;;7.97;2.40;;;;;;;17.20;100.00;101411.88;2081023;28;20474;-63
2023/09/13 01:14:07;;;;;;;3.60;1.80;;;;;;;17.20;100.00;101416.69;2080773;28;20189;-63
2023/09/13 01:15:08;;;;;;;3.53;1.83;;;;;;;17.10;100.00;101401.06;2080192;28;20193;-63
2023/09/13 01:16:21;;;;;;;12.87;2.37;;;;;;;17.24;100.00;101420.94;2080904;28;20291;-63
2023/09/13 01:17:33;;;;;;;5.87;2.07;;;;;;;17.25;100.00;101419.69;2080412;28;20560;-63
2023/09/13 01:18:42;;;;;;;6.70;2.43;;;;;;;16.68;100.00;101335.50;2080879;28;20981;-63
2023/09/13 01:19:55;;;;;;;5.13;1.83;;;;;;;17.17;100.00;101415.59;2080835;28;20835;-63
2023/09/13 01:21:31;;;;;;;3.73;1.77;;;;;;;17.13;100.00;101414.97;2078381;28;20457;-63
2023/09/13 01:22:44;;;;;;;5.17;2.07;;;;;;;17.07;100.00;101425.19;2080975;28;20414;-63
2023/09/13 01:24:03;;;;;;;8.27;1.73;;;;;;;17.07;100.00;101418.81;2073083;28;20413;-63
2023/09/13 01:25:51;;;;;;;3.17;1.47;;;;;;;17.06;100.00;101420.81;2080520;28;20434;-63
2023/09/13 01:27:04;;;;;;;3.20;1.47;;;;;;;17.06;100.00;101420.81;2062989;28;20893;-63
2023/09/13 01:28:35;;;;;;;2.23;1.30;;;;;;;17.02;100.00;101416.59;2063417;28;20464;-63
2023/09/13 01:29:38;;;;;;;7.27;1.70;;;;;;;16.94;100.00;101420.91;2063385;28;20421;-63
2023/09/13 01:30:41;;;;;;;5.70;1.80;;;;;;;16.86;100.00;101420.38;2063220;28;20435;-63
2023/09/13 01:31:42;;;;;;;5.03;1.67;;;;;;;16.84;100.00;101422.84;2064219;28;20443;-63
2023/09/13 01:32:44;;;;;;;2.60;1.73;;;;;;;16.86;100.00;101419.63;2077717;28;20452;-63
2023/09/13 01:33:45;;;;;;;4.53;1.70;;;;;;;16.63;100.00;101388.50;2080903;28;20819;-63
2023/09/13 01:34:45;;;;;;;3.00;1.83;;;;;;;16.63;100.00;101400.47;2080799;28;20442;-63
2023/09/13 01:35:46;;;;;;;2.80;1.80;;;;;;;16.76;100.00;101420.78;2080491;28;20237;-63
2023/09/13 01:36:46;;;;;;;4.80;1.63;;;;;;;16.78;100.00;101421.88;2080814;28;20199;-63
2023/09/13 01:37:47;;;;;;;3.43;1.80;;;;;;;16.79;100.00;101429.03;2080541;28;20169;-63
2023/09/13 01:38:47;;;;;;;3.57;1.60;;;;;;;16.80;100.00;101430.59;2080507;28;20328;-63
2023/09/13 01:39:48;;;;;;;4.17;1.80;;;;;;;16.80;100.00;101429.84;2081661;28;20555;-63
2023/09/13 01:40:51;;;;;;;4.23;2.00;;;;;;;16.81;100.00;101434.97;2080027;28;20204;-63
2023/09/13 01:42:00;;;;;;;3.80;1.80;;;;;;;16.81;100.00;101431.41;2080639;28;20201;-63
2023/09/13 01:43:03;;;;;;;5.10;1.60;;;;;;;16.79;100.00;101431.84;2080600;28;20872;-63
2023/09/13 01:44:04;;;;;;;3.57;1.77;;;;;;;16.78;100.00;101426.69;2080620;28;20500;-63
2023/09/13 01:45:08;;;;;;;3.13;1.40;;;;;;;16.66;100.00;101416.34;2080213;28;20988;-63
2023/09/13 01:46:11;;;;;;;2.97;1.70;;;;;;;16.83;100.00;101428.91;2080584;28;21006;-63
2023/09/13 01:47:14;;;;;;;3.53;1.90;;;;;;;16.83;100.00;101435.31;2080729;28;20724;-63
2023/09/13 01:48:17;;;;;;;2.60;1.67;;;;;;;16.85;100.00;101429.25;2079682;28;20450;-63
2023/09/13 01:49:20;;;;;;;4.03;1.73;;;;;;;16.87;100.00;101437.97;2079813;28;20424;-63
2023/09/13 01:50:21;;;;;;;4.23;2.07;;;;;;;16.87;100.00;101435.16;2080166;28;20920;-63
2023/09/13 01:51:24;;;;;;;3.67;1.70;;;;;;;16.83;100.00;101429.69;2080747;28;20426;-63
2023/09/13 01:52:25;;;;;;;6.60;2.13;;;;;;;16.68;100.00;101416.66;2073102;28;20726;-63
2023/09/13 01:53:25;;;;;;;5.17;1.60;;;;;;;16.79;100.00;101437.44;2079222;28;20836;-63
2023/09/13 01:54:26;;;;;;;3.57;1.90;;;;;;;16.78;100.00;101433.09;2080094;28;20212;-63
2023/09/13 01:55:26;;;;;;;3.27;1.40;;;;;;;16.76;100.00;101431.97;2080548;28;20191;-63
2023/09/13 01:56:27;;;;;;;3.03;1.90;;;;;;;16.75;100.00;101433.22;2080464;28;20287;-63
2023/09/13 01:57:27;;;;;;;3.23;2.03;;;;;;;16.73;100.00;101441.28;2080600;28;20517;-63
2023/09/13 01:58:28;;;;;;;3.27;1.70;;;;;;;16.57;100.00;101423.91;2080606;28;20178;-63
2023/09/13 01:59:28;;;;;;;4.50;1.53;;;;;;;16.55;100.00;101424.34;2080665;28;20264;-63
2023/09/13 02:00:29;;;;;;;3.30;1.60;;;;;;;16.67;100.00;101446.69;2081178;28;20626;-63
2023/09/13 02:01:29;;;;;;;3.20;1.90;;;;;;;16.62;100.00;101445.72;2080693;28;20208;-63
2023/09/13 02:02:30;;;;;;;2.83;1.63;;;;;;;16.66;100.00;101447.13;2080541;28;20191;-63
2023/09/13 02:03:30;;;;;;;4.83;1.70;;;;;;;16.71;100.00;101452.16;2080483;28;20316;-63
2023/09/13 02:04:33;;;;;;;3.10;1.60;;;;;;;16.71;100.00;101441.72;2080037;28;20190;-63
2023/09/13 02:05:33;;;;;;;5.93;2.10;;;;;;;16.74;100.00;101446.44;2080285;28;20247;-63
2023/09/13 02:06:33;;;;;;;7.60;1.77;;;;;;;16.73;100.00;101453.25;2080291;28;21032;-63
2023/09/13 02:07:34;;;;;;;3.60;1.77;;;;;;;16.74;100.00;101451.22;2080455;28;20192;-63
2023/09/13 02:08:36;;;;;;;3.87;1.70;;;;;;;16.76;100.00;101443.94;2081051;28;20662;-63
2023/09/13 02:09:37;;;;;;;4.53;1.70;;;;;;;16.76;100.00;101452.34;2080294;28;20196;-63
2023/09/13 02:10:37;;;;;;;2.77;1.60;;;;;;;16.47;100.00;101400.66;2080532;28;20477;-63
2023/09/13 02:11:38;;;;;;;6.80;1.83;;;;;;;16.38;100.00;101380.94;2080566;28;20449;-63
2023/09/13 02:12:38;;;;;;;2.80;1.73;;;;;;;16.76;100.00;101440.38;2080422;28;20238;-63
2023/09/13 02:13:39;;;;;;;3.47;2.10;;;;;;;16.83;100.00;101447.75;2080373;28;20203;-63
2023/09/13 02:14:39;;;;;;;4.80;1.97;;;;;;;16.82;100.00;101449.75;2080106;28;20191;-63
2023/09/13 02:15:41;;;;;;;7.07;1.73;;;;;;;16.84;100.00;101450.06;2080128;28;20183;-63
2023/09/13 02:16:41;;;;;;;6.00;1.87;;;;;;;16.84;100.00;101447.25;2081295;28;20180;-63
2023/09/13 02:17:41;;;;;;;3.83;1.87;;;;;;;16.86;100.00;101447.59;2080350;28;20435;-63
2023/09/13 02:18:42;;;;;;;3.20;1.27;;;;;;;16.88;100.00;101458.34;2080449;28;20188;-63
2023/09/13 02:19:42;;;;;;;3.80;1.60;;;;;;;16.88;100.00;101453.53;2080522;28;20199;-63
2023/09/13 02:20:43;;;;;;;2.60;1.50;;;;;;;16.87;100.00;101454.75;2080348;28;20204;-63
2023/09/13 02:21:45;;;;;;;2.60;1.70;;;;;;;16.42;100.00;101403.25;2080262;28;20188;-63
2023/09/13 02:22:45;;;;;;;4.23;1.80;;;;;;;16.66;100.00;101445.09;2080205;28;20421;-63
2023/09/13 02:23:46;;;;;;;3.00;1.70;;;;;;;16.76;100.00;101457.94;2079925;28;20430;-63
2023/09/13 02:24:46;;;;;;;2.80;1.63;;;;;;;16.80;100.00;101455.78;2079540;28;20737;-63
2023/09/13 02:25:47;;;;;;;4.67;1.90;;;;;;;16.77;100.00;101444.72;2072827;28;20194;-63
2023/09/13 02:26:47;;;;;;;4.17;1.43;;;;;;;16.72;100.00;101436.91;2079177;28;20551;-63
2023/09/13 02:27:48;;;;;;;4.03;2.00;;;;;;;16.49;100.00;101414.97;2080342;28;20201;-63
2023/09/13 02:28:48;;;;;;;2.10;1.33;;;;;;;16.70;100.00;101447.81;2080461;28;20274;-63
2023/09/13 02:29:49;;;;;;;3.23;1.60;;;;;;;16.74;100.00;101443.63;2080197;28;20207;-63
2023/09/13 02:30:49;;;;;;;3.47;1.53;;;;;;;16.79;100.00;101442.25;2080192;28;20184;-63
2023/09/13 02:31:49;;;;;;;3.97;1.57;;;;;;;16.86;100.00;101450.41;2080202;28;20184;-63
2023/09/13 02:32:50;;;;;;;3.20;1.67;;;;;;;16.88;100.00;101451.50;2080854;28;20259;-63
2023/09/13 02:33:51;;;;;;;3.87;1.70;;;;;;;16.88;100.00;101453.53;2080790;28;20195;-63
2023/09/13 02:34:51;;;;;;;3.10;1.87;;;;;;;16.89;100.00;101463.47;2080545;28;20732;-63
2023/09/13 02:35:51;;;;;;;6.87;1.70;;;;;;;16.53;100.00;101398.81;2080033;28;20199;-63
2023/09/13 02:36:52;;;;;;;3.47;1.80;;;;;;;16.93;100.00;101456.53;2080260;28;20223;-63
2023/09/13 02:37:52;;;;;;;6.00;1.83;;;;;;;16.97;100.00;101456.41;2079477;28;20294;-63
2023/09/13 02:38:53;;;;;;;2.43;1.67;;;;;;;16.99;100.00;101460.31;2080097;28;20194;-63
2023/09/13 02:39:54;;;;;;;3.00;1.67;;;;;;;17.00;100.00;101466.69;2079009;28;20369;-63
2023/09/13 02:40:54;;;;;;;4.70;1.70;;;;;;;16.95;100.00;101454.03;2079686;28;20231;-63
2023/09/13 02:41:55;;;;;;;5.23;1.63;;;;;;;16.98;100.00;101465.59;2072865;28;20679;-63
2023/09/13 02:42:55;;;;;;;6.20;2.13;;;;;;;16.98;100.00;101464.34;2078770;28;20677;-63
2023/09/13 02:43:55;;;;;;;2.83;1.63;;;;;;;17.00;100.00;101461.84;2079985;28;20204;-63
2023/09/13 02:44:56;;;;;;;4.13;1.83;;;;;;;17.00;100.00;101472.28;2079917;28;20193;-63
2023/09/13 02:45:56;;;;;;;11.80;2.20;;;;;;;16.96;100.00;101466.81;2079763;28;20230;-63
2023/09/13 02:46:58;;;;;;;4.57;2.03;;;;;;;16.50;100.00;101388.56;2080236;28;20210;-63
2023/09/13 02:47:58;;;;;;;5.60;1.70;;;;;;;16.98;100.00;101461.53;2080093;28;20195;-63
2023/09/13 02:48:59;;;;;;;4.70;2.37;;;;;;;16.95;100.00;101454.03;2080586;28;20502;-63
2023/09/13 02:49:59;;;;;;;5.67;2.13;;;;;;;17.02;100.00;101461.41;2080716;28;20303;-63
2023/09/13 02:51:00;;;;;;;4.87;2.23;;;;;;;17.00;100.00;101469.50;2080315;28;20199;-63
2023/09/13 02:52:02;;;;;;;2.63;1.40;;;;;;;16.96;100.00;101468.84;2079354;28;20717;-63
2023/09/13 02:53:03;;;;;;;3.47;1.60;;;;;;;16.95;100.00;101473.66;2079941;28;20450;-63
2023/09/13 02:54:04;;;;;;;6.37;1.67;;;;;;;16.95;100.00;101467.28;2079713;28;20586;-63
2023/09/13 02:55:08;;;;;;;2.37;1.40;;;;;;;16.96;100.00;101469.59;2080108;28;20454;-63
2023/09/13 02:56:09;;;;;;;2.77;1.53;;;;;;;16.88;100.00;101448.72;2079979;28;20863;-63
2023/09/13 02:57:09;;;;;;;3.50;2.07;;;;;;;17.01;100.00;101471.81;2079818;28;20489;-63
2023/09/13 02:58:11;;;;;;;2.77;1.50;;;;;;;17.01;100.00;101473.84;2080775;28;20176;-63
2023/09/13 02:59:11;;;;;;;5.60;1.47;;;;;;;16.99;100.00;101485.50;2080350;28;20235;-63
2023/09/13 03:00:13;;;;;;;4.33;2.00;;;;;;;16.99;100.00;101479.09;2080151;28;20451;-63
2023/09/13 03:01:13;;;;;;;4.50;1.90;;;;;;;16.99;100.00;101468.69;2080304;28;20193;-63
2023/09/13 03:02:13;;;;;;;3.23;1.80;;;;;;;16.73;100.00;101432.88;2079981;28;20458;-63
2023/09/13 03:03:14;;;;;;;5.53;1.73;;;;;;;17.03;100.00;101472.16;2080256;28;20255;-63
2023/09/13 03:04:15;;;;;;;2.53;1.60;;;;;;;17.02;100.00;101469.81;2079808;28;20181;-63
2023/09/13 03:05:15;;;;;;;2.53;1.67;;;;;;;17.00;100.00;101472.28;2078738;28;20242;-63
2023/09/13 03:06:16;;;;;;;2.17;1.50;;;;;;;16.86;100.00;101456.78;2080198;28;20258;-63
2023/09/13 03:07:17;;;;;;;2.47;1.40;;;;;;;16.98;100.00;101480.34;2079778;28;20193;-63
2023/09/13 03:08:17;;;;;;;3.33;1.60;;;;;;;16.30;100.00;101386.00;2079772;28;20197;-63
2023/09/13 03:09:18;;;;;;;6.97;1.80;;;;;;;16.18;100.00;101369.31;2080232;28;20237;-63
2023/09/13 03:10:18;;;;;;;3.80;1.77;;;;;;;16.89;100.00;101481.06;2079543;28;20215;-63
2023/09/13 03:11:19;;;;;;;2.43;1.40;;;;;;;16.88;100.00;101482.31;2080104;28;20230;-63
2023/09/13 03:12:19;;;;;;;5.50;1.83;;;;;;;16.87;100.00;101477.16;2078831;28;20216;-63
2023/09/13 03:13:20;;;;;;;3.93;1.63;;;;;;;16.85;100.00;101477.59;2080074;28;20190;-63
2023/09/13 03:14:20;;;;;;;3.40;1.73;;;;;;;16.80;100.00;101478.19;2080559;28;20719;-63
2023/09/13 03:15:21;;;;;;;6.20;2.00;;;;;;;16.71;100.00;101468.94;2079986;28;20195;-63
2023/09/13 03:16:22;;;;;;;2.93;1.50;;;;;;;16.79;100.00;101478.63;2079936;28;20679;-63
2023/09/13 03:17:22;;;;;;;1.67;1.33;;;;;;;16.55;100.00;101455.13;2080142;28;20203;-63
2023/09/13 03:18:23;;;;;;;1.80;1.50;;;;;;;16.73;100.00;101474.09;2079458;28;20461;-63
2023/09/13 03:19:23;;;;;;;5.60;1.73;;;;;;;16.67;100.00;101474.69;2077247;28;20188;-63
2023/09/13 03:20:23;;;;;;;2.63;1.70;;;;;;;16.67;100.00;101471.09;2072493;28;20402;-63
2023/09/13 03:21:24;;;;;;;3.80;1.90;;;;;;;16.61;100.00;101470.09;2079406;28;20184;-63
2023/09/13 03:22:24;;;;;;;4.60;1.93;;;;;;;16.42;100.00;101435.59;2080228;28;20203;-63
2023/09/13 03:23:25;;;;;;;3.10;2.10;;;;;;;16.63;100.00;101478.06;2080399;28;20263;-63
2023/09/13 03:24:25;;;;;;;4.00;1.60;;;;;;;16.63;100.00;101475.25;2079454;28;20195;-63
2023/09/13 03:25:26;;;;;;;3.07;1.40;;;;;;;16.63;100.00;101478.81;2079747;28;20208;-63
2023/09/13 03:26:26;;;;;;;3.50;1.70;;;;;;;15.90;100.00;101375.84;2079722;28;20231;-63
2023/09/13 03:27:27;;;;;;;2.83;1.57;;;;;;;16.59;100.00;101484.53;2079347;28;20225;-63
2023/09/13 03:28:31;;;;;;;5.07;1.60;;;;;;;16.28;100.00;101424.84;2080315;28;20288;-63
2023/09/13 03:29:32;;;;;;;9.27;1.80;;;;;;;16.29;100.00;101428.44;2080019;28;20310;-63
2023/09/13 03:30:34;;;;;;;3.47;1.60;;;;;;;16.68;100.00;101483.84;2079347;28;20449;-63
2023/09/13 03:31:36;;;;;;;2.80;1.60;;;;;;;16.68;100.00;101486.63;2079957;28;20563;-63
2023/09/13 03:32:37;;;;;;;5.03;1.60;;;;;;;16.68;100.00;101489.44;2080126;28;20424;-63
2023/09/13 03:33:42;;;;;;;5.10;1.87;;;;;;;15.80;100.00;101365.81;2079820;28;20424;-63
2023/09/13 03:34:43;;;;;;;4.87;1.80;;;;;;;16.65;100.00;101498.75;2079086;28;20183;-63
2023/09/13 03:35:43;;;;;;;5.00;1.60;;;;;;;16.64;100.00;101503.56;2080535;28;20511;-63
2023/09/13 03:36:43;;;;;;;3.03;1.67;;;;;;;16.63;100.00;101496.41;2080785;28;20197;-63
2023/09/13 03:37:44;;;;;;;4.63;1.83;;;;;;;16.60;100.00;101493.72;2081254;28;20303;-63
2023/09/13 03:38:46;;;;;;;2.13;1.70;;;;;;;16.58;100.00;101493.38;2081867;28;20676;-63
2023/09/13 03:39:46;;;;;;;4.63;1.80;;;;;;;16.55;100.00;101492.28;2081194;28;20706;-63
2023/09/13 03:40:46;;;;;;;3.87;2.10;;;;;;;15.84;100.00;101384.00;2081624;28;20827;-63
2023/09/13 03:41:47;;;;;;;3.17;1.70;;;;;;;16.52;100.00;101486.81;2080669;28;20649;-63
2023/09/13 03:42:47;;;;;;;3.93;1.80;;;;;;;16.52;100.00;101490.41;2081486;28;20617;-63
2023/09/13 03:43:49;;;;;;;7.83;1.90;;;;;;;16.52;100.00;101484.00;2082357;28;20231;-63
2023/09/13 03:44:49;;;;;;;2.97;1.83;;;;;;;16.52;100.00;101489.59;2080874;28;20199;-63
2023/09/13 03:45:49;;;;;;;5.03;1.87;;;;;;;16.26;100.00;101446.13;2080582;28;20451;-63
2023/09/13 03:46:50;;;;;;;8.13;2.03;;;;;;;16.53;100.00;101491.97;2078561;28;20277;-63
2023/09/13 03:47:50;;;;;;;4.90;1.90;;;;;;;16.54;100.00;101495.53;2081675;28;20204;-63
2023/09/13 03:48:51;;;;;;;6.23;2.23;;;;;;;16.52;100.00;101501.59;2081062;28;20204;-63
2023/09/13 03:49:51;;;;;;;6.70;2.00;;;;;;;16.39;100.00;101474.88;2081134;28;20288;-63
2023/09/13 03:50:51;;;;;;;10.63;2.83;;;;;;;15.79;100.00;101381.03;2081521;28;20207;-63
2023/09/13 03:51:52;;;;;;;7.30;2.27;;;;;;;16.47;100.00;101489.41;2082183;28;20283;-63
2023/09/13 03:52:52;;;;;;;7.77;2.17;;;;;;;16.44;100.00;101485.50;2081571;28;20204;-63
2023/09/13 03:53:53;;;;;;;6.83;2.40;;;;;;;16.27;100.00;101459.66;2080825;28;20200;-63
2023/09/13 03:54:54;;;;;;;7.33;2.50;;;;;;;16.34;100.00;101472.63;2079902;28;20233;-63
2023/09/13 03:55:54;;;;;;;6.60;2.20;;;;;;;16.33;100.00;101491.41;2080574;28;20442;-63
2023/09/13 03:56:55;;;;;;;4.70;1.80;;;;;;;16.31;100.00;101485.50;2072528;28;20175;-63
2023/09/13 03:57:55;;;;;;;3.60;1.80;;;;;;;16.20;100.00;101475.91;2073704;28;20747;-63
2023/09/13 03:58:56;;;;;;;3.20;1.70;;;;;;;16.32;100.00;101489.06;2081501;28;20252;-63
2023/09/13 03:59:56;;;;;;;2.63;1.93;;;;;;;16.31;100.00;101484.69;2074087;28;20269;-63
2023/09/13 04:00:57;;;;;;;5.83;2.03;;;;;;;16.30;100.00;101492.31;2079637;28;20191;-63
2023/09/13 04:01:57;;;;;;;3.53;1.47;;;;;;;16.29;100.00;101492.78;2078844;28;20284;-63
2023/09/13 04:02:58;;;;;;;4.90;1.77;;;;;;;16.26;100.00;101494.47;2079364;28;20194;-63
2023/09/13 04:03:58;;;;;;;6.00;2.43;;;;;;;16.21;100.00;101492.22;2078689;28;20195;-63
2023/09/13 04:04:59;;;;;;;6.90;2.13;;;;;;;16.23;100.00;101497.34;2079097;28;20187;-63
2023/09/13 04:06:00;;;;;;;6.60;2.20;;;;;;;16.06;100.00;101468.75;2081510;28;20231;-63
2023/09/13 04:07:00;;;;;;;4.80;1.70;;;;;;;16.37;100.00;101502.47;2079224;28;20192;-61
2023/09/13 04:08:01;;;;;;;3.07;1.33;;;;;;;15.98;100.00;101431.06;2080934;28;20546;-61
2023/09/13 04:09:02;;;;;;;3.23;1.40;;;;;;;17.10;100.00;101510.31;2078374;28;20198;-61
2023/09/13 04:10:03;;;;;;;2.73;1.50;;;;;;;17.80;100.00;101512.50;2078684;28;20474;-61
2023/09/13 04:11:04;;;;;;;3.73;1.50;;;;;;;18.41;100.00;101506.78;2079717;28;20188;-61
2023/09/13 04:12:04;;;;;;;2.90;1.60;;;;;;;19.01;100.00;101516.97;2080851;28;20192;-63
2023/09/13 04:13:05;;;;;;;2.97;1.47;;;;;;;19.33;100.00;101521.16;2079314;28;20554;-62
2023/09/13 04:14:07;;;;;;;4.23;1.20;;;;;;;19.71;100.00;101508.09;2079373;28;20227;-60
2023/09/13 04:15:08;;;;;;;8.63;1.87;;;;;;;20.05;100.00;101516.09;2079355;28;20197;-60
2023/09/13 04:16:13;;;;;;;2.57;1.40;;;;;;;20.17;100.00;101486.22;2077265;28;20510;-60
2023/09/13 04:17:14;;;;;;;5.03;1.50;;;;;;;20.54;100.00;101484.72;2084651;28;20417;-61
2023/09/13 04:18:14;;;;;;;2.27;1.50;;;;;;;20.91;100.00;101503.72;2084376;28;20426;-62
2023/09/13 04:19:15;;;;;;;3.03;1.30;;;;;;;20.85;100.00;101499.97;2081943;28;20193;-62
2023/09/13 04:20:15;;;;;;;2.40;1.50;;;;;;;21.07;100.00;101514.53;2080429;28;20196;-62
2023/09/13 04:21:16;;;;;;;3.70;1.43;;;;;;;21.18;100.00;101488.59;2080383;28;20196;-61
2023/09/13 04:22:16;;;;;;;2.23;1.60;;;;;;;21.40;100.00;101514.38;2084380;28;20188;-61
2023/09/13 04:23:16;;;;;;;4.17;1.47;;;;;;;21.59;100.00;101501.66;2080840;28;20195;-60
2023/09/13 04:24:17;;;;;;;2.70;1.50;;;;;;;21.63;100.00;101500.16;2084991;28;20736;-58
2023/09/13 04:25:18;;;;;;;5.13;1.63;;;;;;;21.25;100.00;101454.38;2078621;28;20702;-58
2023/09/13 04:26:21;;;;;;;2.00;1.50;;;;;;;21.52;100.00;101497.16;2085823;28;20746;-58
2023/09/13 04:27:25;;;;;;;3.90;1.27;;;;;;;21.59;100.00;101499.59;2079713;28;20487;-58
2023/09/13 04:28:25;;;;;;;3.60;1.50;;;;;;;21.66;100.00;101502.03;2080886;28;20542;-62
2023/09/13 04:29:26;;;;;;;2.17;1.20;;;;;;;21.79;100.00;101493.25;2080760;28;20185;-61
2023/09/13 04:30:26;;;;;;;2.87;1.53;;;;;;;22.05;100.00;101499.84;2082783;28;20192;-61
2023/09/13 04:31:28;;;;;;;2.57;1.27;;;;;;;22.11;100.00;101498.66;2082372;28;20538;-61
2023/09/13 04:32:28;;;;;;;2.57;1.40;;;;;;;22.23;100.00;101488.31;2082837;28;20245;-61
2023/09/13 04:33:53;;;;;;;3.43;1.60;;;;;;;22.32;100.00;101497.41;2081541;28;21551;-61
2023/09/13 04:34:54;;;;;;;2.50;1.30;;;;;;;22.10;100.00;101474.50;2084609;28;20556;-61
2023/09/13 04:35:55;;;;;;;3.60;1.60;;;;;;;22.29;100.00;101497.63;2084984;28;20189;-60
2023/09/13 04:36:55;;;;;;;3.70;1.53;;;;;;;22.25;100.00;101495.00;2085592;28;20447;-61
2023/09/13 04:37:57;;;;;;;2.60;1.40;;;;;;;22.01;100.00;101468.97;2083301;28;20177;-62
2023/09/13 04:38:57;;;;;;;3.10;2.00;;;;;;;22.21;100.00;101500.06;2084992;28;20180;-62
2023/09/13 04:39:58;;;;;;;4.90;1.70;;;;;;;22.25;100.00;101506.31;2079100;28;20258;-62
2023/09/13 04:40:58;;;;;;;3.17;1.30;;;;;;;22.32;100.00;101497.41;2079315;28;20197;-62
2023/09/13 04:41:59;;;;;;;3.83;1.60;;;;;;;22.34;100.00;101497.72;2081300;28;20199;-59
2023/09/13 04:43:23;;;;;;;5.67;1.70;;;;;;;22.38;100.00;101500.31;2079424;28;24126;-59
2023/09/13 04:44:24;;;;;;;2.20;1.47;;;;;;;22.25;100.00;101468.81;2080043;28;20228;-62